createdAt,value
2023-03-19T00:02:17.398Z,6.30
2023-03-19T00:07:09.092Z,6.32
2023-03-19T00:12:09.023Z,6.17
2023-03-19T00:17:08.994Z,6.11
2023-03-19T00:22:08.941Z,6.20
2023-03-19T00:27:08.892Z,6.02
2023-03-19T00:32:08.864Z,5.92
2023-03-19T00:37:08.817Z,6.06
2023-03-19T00:42:08.793Z,6.06
2023-03-19T00:47:08.757Z,6.08
2023-03-19T00:52:08.716Z,6.02
2023-03-19T00:57:08.697Z,6.02
2023-03-19T01:02:08.642Z,6.16
2023-03-19T01:07:08.593Z,6.25
2023-03-19T01:12:08.555Z,6.32
2023-03-19T01:17:08.543Z,6.33
2023-03-19T01:22:08.503Z,6.43
2023-03-19T01:27:08.471Z,6.65
2023-03-19T01:32:08.435Z,6.87
2023-03-19T01:37:08.389Z,7.01
2023-03-19T01:42:08.376Z,7.11
2023-03-19T01:47:08.360Z,7.08
2023-03-19T01:52:08.313Z,7.00
2023-03-19T01:57:08.298Z,6.99
2023-03-19T02:02:08.271Z,6.87
2023-03-19T02:07:10.895Z,6.83
2023-03-19T02:12:08.199Z,6.97
2023-03-19T02:17:08.169Z,7.01
2023-03-19T02:22:08.141Z,7.09
2023-03-19T02:27:08.114Z,7.23
2023-03-19T02:32:08.075Z,7.32
2023-03-19T02:37:08.039Z,7.42
2023-03-19T02:42:07.999Z,7.45
2023-03-19T02:47:07.953Z,7.44
2023-03-19T02:52:07.925Z,7.67
2023-03-19T02:57:07.884Z,7.74
2023-03-19T03:02:07.870Z,7.82
2023-03-19T03:07:07.804Z,7.91
2023-03-19T03:12:07.771Z,7.95
2023-03-19T03:17:07.732Z,8.02
2023-03-19T03:22:07.745Z,8.00
2023-03-19T03:27:07.652Z,8.00
2023-03-19T03:32:07.635Z,8.02
2023-03-19T03:37:07.617Z,7.89
2023-03-19T03:42:07.591Z,7.82
2023-03-19T03:47:07.540Z,7.81
2023-03-19T03:52:07.506Z,7.85
2023-03-19T03:57:07.484Z,7.67
2023-03-19T04:02:07.516Z,7.69
2023-03-19T04:07:07.432Z,7.67
2023-03-19T04:12:07.398Z,7.57
2023-03-19T04:17:07.367Z,7.55
2023-03-19T04:22:07.432Z,7.58
2023-03-19T04:27:07.342Z,7.51
2023-03-19T04:32:07.250Z,7.51
2023-03-19T04:37:07.229Z,7.50
2023-03-19T04:42:07.207Z,7.45
2023-03-19T04:47:07.189Z,7.44
2023-03-19T04:52:07.168Z,7.51
2023-03-19T04:57:07.173Z,7.45
2023-03-19T05:02:07.093Z,7.36
2023-03-19T05:07:07.075Z,7.32
2023-03-19T05:12:07.040Z,7.37
2023-03-19T05:17:07.016Z,7.41
2023-03-19T05:22:07.000Z,7.48
2023-03-19T05:27:06.975Z,7.45
2023-03-19T05:32:06.958Z,7.48
2023-03-19T05:37:06.946Z,7.57
2023-03-19T05:42:06.921Z,7.63
2023-03-19T05:47:06.909Z,7.57
2023-03-19T05:52:06.887Z,7.63
2023-03-19T05:57:06.883Z,7.71
2023-03-19T06:02:06.851Z,7.85
2023-03-19T06:07:06.824Z,7.91
2023-03-19T06:12:06.927Z,7.99
2023-03-19T06:17:06.813Z,8.09
2023-03-19T06:22:06.749Z,8.14
2023-03-19T06:27:06.723Z,8.18
2023-03-19T06:32:06.703Z,8.22
2023-03-19T06:37:06.670Z,8.24
2023-03-19T06:42:06.636Z,8.24
2023-03-19T06:47:06.747Z,8.18
2023-03-19T06:52:06.604Z,8.18
2023-03-19T06:57:06.567Z,8.27
2023-03-19T07:02:08.403Z,8.22
2023-03-19T07:07:06.514Z,8.25
2023-03-19T07:12:06.466Z,8.24
2023-03-19T07:17:07.568Z,8.28
2023-03-19T07:22:06.422Z,8.40
2023-03-19T07:27:06.388Z,8.40
2023-03-19T07:32:06.348Z,8.32
2023-03-19T07:37:06.321Z,8.40
2023-03-19T07:42:06.291Z,8.45
2023-03-19T07:47:08.182Z,8.64
2023-03-19T07:52:06.190Z,8.73
2023-03-19T07:57:06.448Z,8.67
2023-03-19T08:02:06.153Z,8.85
2023-03-19T08:07:06.085Z,9.01
2023-03-19T08:12:06.044Z,9.15
2023-03-19T08:17:06.133Z,9.65
2023-03-19T08:22:05.979Z,10.32
2023-03-19T08:27:05.972Z,11.39
2023-03-19T08:32:05.932Z,11.96
2023-03-19T08:37:05.879Z,12.71
2023-03-19T08:42:05.867Z,13.51
2023-03-19T08:47:05.804Z,14.29
2023-03-19T08:52:05.795Z,13.44
2023-03-19T08:57:05.743Z,12.23
2023-03-19T09:02:05.767Z,12.29
2023-03-19T09:07:05.884Z,12.26
2023-03-19T09:12:05.668Z,13.35
2023-03-19T09:17:05.639Z,13.68
2023-03-19T09:22:05.852Z,15.51
2023-03-19T09:27:05.618Z,13.36
2023-03-19T09:32:05.525Z,13.94
2023-03-19T09:37:05.556Z,13.72
2023-03-19T09:42:05.465Z,13.41
2023-03-19T09:47:05.477Z,13.27
2023-03-19T09:52:06.818Z,13.24
2023-03-19T09:57:05.426Z,13.51
2023-03-19T10:02:05.452Z,13.38
2023-03-19T10:07:06.035Z,13.46
2023-03-19T10:12:05.336Z,13.59
2023-03-19T10:17:05.303Z,14.12
2023-03-19T10:22:05.259Z,14.30
2023-03-19T10:27:05.436Z,14.09
2023-03-19T10:32:05.241Z,14.09
2023-03-19T10:37:05.224Z,14.17
2023-03-19T10:42:05.166Z,14.17
2023-03-19T10:47:05.140Z,14.52
2023-03-19T10:52:05.165Z,14.24
2023-03-19T10:57:05.397Z,14.21
2023-03-19T11:02:05.072Z,14.21
2023-03-19T11:07:05.043Z,14.57
2023-03-19T11:12:04.986Z,15.31
2023-03-19T11:17:05.077Z,15.91
2023-03-19T11:22:04.911Z,16.01
2023-03-19T11:27:04.887Z,15.25
2023-03-19T11:32:20.293Z,15.11
2023-03-19T11:37:04.794Z,15.04
2023-03-19T11:42:04.782Z,15.40
2023-03-19T11:47:08.379Z,15.78
2023-03-19T11:52:04.733Z,16.36
2023-03-19T11:57:04.681Z,17.18
2023-03-19T12:02:04.683Z,17.00
2023-03-19T12:07:04.644Z,17.40
2023-03-19T12:12:04.957Z,16.98
2023-03-19T12:17:04.610Z,16.98
2023-03-19T12:22:04.574Z,16.99
2023-03-19T12:27:04.534Z,16.41
2023-03-19T12:32:04.521Z,16.14
2023-03-19T12:37:04.457Z,16.36
2023-03-19T12:42:04.458Z,17.22
2023-03-19T12:47:04.387Z,16.82
2023-03-19T12:52:04.358Z,16.50
2023-03-19T12:57:04.332Z,16.32
2023-03-19T13:02:04.568Z,16.17
2023-03-19T13:07:04.305Z,16.29
2023-03-19T13:12:04.308Z,16.17
2023-03-19T13:17:04.228Z,16.14
2023-03-19T13:22:04.208Z,16.34
2023-03-19T13:27:04.240Z,16.30
2023-03-19T13:32:04.166Z,16.33
2023-03-19T13:37:04.153Z,16.11
2023-03-19T13:42:04.125Z,16.18
2023-03-19T13:47:04.157Z,16.07
2023-03-19T13:52:04.038Z,15.92
2023-03-19T13:57:04.013Z,16.03
2023-03-19T14:02:04.003Z,15.98
2023-03-19T14:07:03.948Z,15.96
2023-03-19T14:12:03.996Z,16.07
2023-03-19T14:17:03.895Z,15.93
2023-03-19T14:22:05.757Z,15.89
2023-03-19T14:27:03.881Z,15.85
2023-03-19T14:32:03.830Z,15.80
2023-03-19T14:37:03.798Z,15.78
2023-03-19T14:42:03.793Z,15.88
2023-03-19T14:47:03.744Z,15.86
2023-03-19T14:52:03.740Z,15.81
2023-03-19T14:57:03.693Z,15.81
2023-03-19T15:02:03.631Z,15.98
2023-03-19T15:07:03.627Z,15.98
2023-03-19T15:12:03.571Z,15.95
2023-03-19T15:17:03.671Z,15.95
2023-03-19T15:22:03.527Z,15.85
2023-03-19T15:27:03.499Z,15.80
2023-03-19T15:32:06.186Z,15.66
2023-03-19T15:37:03.499Z,15.48
2023-03-19T15:42:03.438Z,15.22
2023-03-19T15:47:03.388Z,15.03
2023-03-19T15:52:03.340Z,14.83
2023-03-19T15:57:03.305Z,14.72
2023-03-19T16:02:03.272Z,14.61
2023-03-19T16:07:03.201Z,14.52
2023-03-19T16:12:03.195Z,14.44
2023-03-19T16:17:03.174Z,14.35
2023-03-19T16:22:03.150Z,14.27
2023-03-19T16:27:03.131Z,14.16
2023-03-19T16:32:03.066Z,14.02
2023-03-19T16:37:03.006Z,13.93
2023-03-19T16:42:03.097Z,13.83
2023-03-19T16:47:04.754Z,13.76
2023-03-19T16:52:02.937Z,13.72
2023-03-19T16:57:02.884Z,13.63
2023-03-19T17:02:02.899Z,13.48
2023-03-19T17:07:02.797Z,13.36
2023-03-19T17:12:02.756Z,13.24
2023-03-19T17:17:02.696Z,13.07
2023-03-19T17:22:02.659Z,12.87
2023-03-19T17:27:02.638Z,12.80
2023-03-19T17:32:02.655Z,12.62
2023-03-19T17:37:02.759Z,12.46
2023-03-19T17:42:02.567Z,12.36
2023-03-19T17:47:02.597Z,12.23
2023-03-19T17:52:02.519Z,12.19
2023-03-19T17:57:03.016Z,12.15
2023-03-19T18:02:02.400Z,12.11
2023-03-19T18:07:02.347Z,12.13
2023-03-19T18:12:02.312Z,12.16
2023-03-19T18:17:02.300Z,12.19
2023-03-19T18:22:02.303Z,12.21
2023-03-19T18:27:02.246Z,12.21
2023-03-19T18:32:02.245Z,12.18
2023-03-19T18:37:02.174Z,12.16
2023-03-19T18:42:02.128Z,12.22
2023-03-19T18:47:02.094Z,12.19
2023-03-19T18:52:03.680Z,12.19
2023-03-19T18:57:02.028Z,12.18
2023-03-19T19:02:01.992Z,12.18
2023-03-19T19:07:01.951Z,12.18
2023-03-19T19:12:01.964Z,12.07
2023-03-19T19:17:01.968Z,11.98
2023-03-19T19:22:02.523Z,12.00
2023-03-19T19:27:02.582Z,11.96
2023-03-19T19:32:01.894Z,11.93
2023-03-19T19:37:01.845Z,11.98
2023-03-19T19:42:04.568Z,11.98
2023-03-19T19:47:01.750Z,11.97
2023-03-19T19:52:01.728Z,11.85
2023-03-19T19:57:01.714Z,11.74
2023-03-19T20:02:02.633Z,11.74
2023-03-19T20:07:01.690Z,11.81
2023-03-19T20:12:01.667Z,11.77
2023-03-19T20:17:01.629Z,11.64
2023-03-19T20:22:01.585Z,11.54
2023-03-19T20:27:01.563Z,11.54
2023-03-19T20:32:01.557Z,11.57
2023-03-19T20:37:01.504Z,11.60
2023-03-19T20:42:01.461Z,11.54
2023-03-19T20:47:01.439Z,11.44
2023-03-19T20:52:01.463Z,11.23
2023-03-19T20:57:01.378Z,11.08
2023-03-19T21:02:01.372Z,10.98
2023-03-19T21:07:01.336Z,10.75
2023-03-19T21:12:01.298Z,10.60
2023-03-19T21:17:01.268Z,10.57
2023-03-19T21:22:01.257Z,10.51
2023-03-19T21:27:03.590Z,10.51
2023-03-19T21:32:01.201Z,10.44
2023-03-19T21:37:01.143Z,10.34
2023-03-19T21:42:01.113Z,10.28
2023-03-19T21:47:01.140Z,10.16
2023-03-19T21:52:01.055Z,10.01
2023-03-19T21:57:01.027Z,9.92
2023-03-19T22:02:00.984Z,9.92
2023-03-19T22:07:00.956Z,9.96
2023-03-19T22:12:00.922Z,9.96
2023-03-19T22:17:00.885Z,9.93
2023-03-19T22:22:00.857Z,9.93
2023-03-19T22:27:00.822Z,9.88
2023-03-19T22:32:00.886Z,9.89
2023-03-19T22:37:00.757Z,9.85
2023-03-19T22:42:00.703Z,9.92
2023-03-19T22:47:00.754Z,9.92
2023-03-19T22:52:00.674Z,9.99
2023-03-19T22:57:00.633Z,9.99
2023-03-19T23:02:00.570Z,10.11
2023-03-19T23:07:00.542Z,10.22
2023-03-19T23:12:00.495Z,10.34
2023-03-19T23:17:02.539Z,10.43
2023-03-19T23:22:00.446Z,10.47
2023-03-19T23:27:00.396Z,10.62
2023-03-19T23:32:00.367Z,10.70
2023-03-19T23:37:00.330Z,10.69
2023-03-19T23:42:00.291Z,10.80
2023-03-19T23:47:00.269Z,10.86
2023-03-19T23:52:00.235Z,10.91
2023-03-19T23:57:00.228Z,10.95
